createdAt,value
2022-08-17T00:01:52.317Z,23.18
2022-08-17T00:04:21.885Z,23.13
2022-08-17T00:06:51.487Z,23.08
2022-08-17T00:09:19.885Z,23.06
2022-08-17T00:12:03.889Z,23.05
2022-08-17T00:14:40.605Z,23.05
2022-08-17T00:17:11.968Z,23.02
2022-08-17T00:19:41.954Z,22.99
2022-08-17T00:22:31.706Z,22.93
2022-08-17T00:25:02.481Z,22.88
2022-08-17T00:27:38.683Z,22.77
2022-08-17T00:30:09.949Z,22.73
2022-08-17T00:33:14.034Z,22.76
2022-08-17T00:35:40.054Z,22.73
2022-08-17T00:38:10.057Z,22.72
2022-08-17T00:40:49.038Z,22.78
2022-08-17T00:43:38.826Z,22.77
2022-08-17T00:46:13.806Z,22.78
2022-08-17T00:48:42.355Z,22.80
2022-08-17T00:51:51.085Z,22.77
2022-08-17T00:54:43.412Z,22.82
2022-08-17T00:57:32.737Z,22.77
2022-08-17T01:00:29.097Z,22.72
2022-08-17T01:03:26.132Z,22.71
2022-08-17T01:05:57.519Z,22.70
2022-08-17T01:08:33.387Z,22.67
2022-08-17T01:11:02.503Z,22.68
2022-08-17T01:13:47.968Z,22.68
2022-08-17T01:16:34.824Z,22.65
2022-08-17T01:19:17.554Z,22.67
2022-08-17T01:22:13.593Z,22.64
2022-08-17T01:24:48.689Z,22.57
2022-08-17T01:27:25.326Z,22.55
2022-08-17T01:29:58.852Z,22.61
2022-08-17T01:32:39.964Z,22.59
2022-08-17T01:35:17.173Z,22.53
2022-08-17T01:37:54.405Z,22.39
2022-08-17T01:40:47.324Z,22.40
2022-08-17T01:44:05.098Z,22.33
2022-08-17T01:46:42.870Z,22.14
2022-08-17T01:49:14.035Z,22.06
2022-08-17T01:51:43.727Z,22.01
2022-08-17T01:54:18.803Z,21.96
2022-08-17T01:56:50.641Z,21.87
2022-08-17T01:59:21.085Z,21.72
2022-08-17T02:01:49.366Z,21.71
2022-08-17T02:04:20.252Z,21.65
2022-08-17T02:06:54.039Z,21.61
2022-08-17T02:09:25.959Z,21.55
2022-08-17T02:11:56.621Z,21.49
2022-08-17T02:14:27.403Z,21.45
2022-08-17T02:16:58.693Z,21.38
2022-08-17T02:19:28.161Z,21.44
2022-08-17T02:21:55.413Z,21.42
2022-08-17T02:24:58.990Z,21.41
2022-08-17T02:27:23.890Z,21.43
2022-08-17T02:30:05.338Z,21.32
2022-08-17T02:32:56.745Z,21.16
2022-08-17T02:35:24.680Z,21.15
2022-08-17T02:37:51.961Z,21.20
2022-08-17T02:40:35.781Z,21.17
2022-08-17T02:43:08.270Z,21.13
2022-08-17T02:45:38.846Z,21.12
2022-08-17T02:48:08.209Z,21.11
2022-08-17T02:50:37.673Z,21.01
2022-08-17T02:53:06.230Z,20.98
2022-08-17T02:55:40.685Z,21.02
2022-08-17T02:58:10.894Z,20.99
2022-08-17T03:00:44.901Z,21.02
2022-08-17T03:03:19.654Z,20.98
2022-08-17T03:05:51.395Z,20.97
2022-08-17T03:08:31.099Z,20.96
2022-08-17T03:10:58.694Z,20.90
2022-08-17T03:13:35.873Z,20.81
2022-08-17T03:16:11.830Z,20.75
2022-08-17T03:18:39.046Z,20.76
2022-08-17T03:21:10.523Z,20.72
2022-08-17T03:23:41.648Z,20.66
2022-08-17T03:26:12.358Z,20.61
2022-08-17T03:28:44.695Z,20.62
2022-08-17T03:31:20.284Z,20.60
2022-08-17T03:33:51.095Z,20.54
2022-08-17T03:36:28.361Z,20.48
2022-08-17T03:38:58.784Z,20.46
2022-08-17T03:41:27.975Z,20.46
2022-08-17T03:44:05.824Z,20.47
2022-08-17T03:46:57.096Z,20.46
2022-08-17T03:49:46.464Z,20.33
2022-08-17T03:52:35.254Z,20.33
2022-08-17T03:55:35.928Z,20.31
2022-08-17T03:58:15.166Z,20.18
2022-08-17T04:00:51.088Z,20.17
2022-08-17T04:03:21.827Z,20.18
2022-08-17T04:05:51.968Z,20.20
2022-08-17T04:08:27.377Z,20.19
2022-08-17T04:10:57.254Z,20.18
2022-08-17T04:13:34.623Z,20.14
2022-08-17T04:16:02.897Z,20.11
2022-08-17T04:18:34.873Z,20.10
2022-08-17T04:21:03.139Z,20.08
2022-08-17T04:23:41.640Z,20.06
2022-08-17T04:26:52.141Z,20.04
2022-08-17T04:29:06.207Z,20.04
2022-08-17T04:31:37.055Z,20.03
2022-08-17T04:34:04.297Z,20.05
2022-08-17T04:36:35.885Z,20.04
2022-08-17T04:39:05.125Z,20.06
2022-08-17T04:41:55.860Z,20.04
2022-08-17T04:47:07.955Z,20.16
2022-08-17T04:49:39.160Z,20.18
2022-08-17T04:52:29.691Z,20.26
2022-08-17T04:55:12.924Z,20.33
2022-08-17T04:57:45.061Z,20.28
2022-08-17T05:00:16.127Z,20.14
2022-08-17T05:02:51.136Z,20.25
2022-08-17T05:05:32.732Z,20.38
2022-08-17T05:08:06.938Z,20.50
2022-08-17T05:10:45.154Z,20.53
2022-08-17T05:13:29.811Z,20.43
2022-08-17T05:16:02.666Z,20.48
2022-08-17T05:18:33.736Z,20.55
2022-08-17T05:21:05.734Z,20.70
2022-08-17T05:23:42.893Z,20.78
2022-08-17T05:26:26.225Z,20.89
2022-08-17T05:28:59.534Z,20.92
2022-08-17T05:31:33.357Z,21.07
2022-08-17T05:34:03.334Z,21.25
2022-08-17T05:36:41.685Z,21.36
2022-08-17T05:39:16.240Z,21.48
2022-08-17T05:41:54.769Z,21.63
2022-08-17T05:44:25.333Z,21.81
2022-08-17T05:46:56.905Z,21.90
2022-08-17T05:49:31.096Z,22.09
2022-08-17T05:52:23.807Z,22.32
2022-08-17T05:55:11.968Z,22.63
2022-08-17T05:58:17.858Z,22.85
2022-08-17T06:01:34.612Z,23.12
2022-08-17T11:08:51.508Z,34.92
2022-08-17T11:11:55.056Z,35.07
2022-08-17T11:14:51.400Z,34.42
2022-08-17T11:17:37.245Z,34.69
2022-08-17T11:20:41.496Z,34.43
2022-08-17T11:23:58.460Z,34.45
2022-08-17T11:26:32.583Z,34.82
2022-08-17T11:29:18.952Z,34.68
2022-08-17T11:32:30.830Z,34.88
2022-08-17T11:35:44.680Z,34.35
2022-08-17T11:38:22.925Z,34.15
2022-08-17T11:41:16.274Z,34.33
2022-08-17T11:44:17.040Z,34.74
2022-08-17T11:47:19.136Z,34.61
2022-08-17T11:50:39.005Z,34.59
2022-08-17T11:53:12.164Z,34.18
2022-08-17T11:55:44.415Z,34.39
2022-08-17T11:58:30.590Z,34.55
2022-08-17T12:01:04.147Z,34.45
2022-08-17T12:03:41.477Z,34.26
2022-08-17T12:06:30.674Z,34.59
2022-08-17T12:09:30.191Z,34.63
2022-08-17T12:12:14.428Z,34.91
2022-08-17T12:17:59.283Z,34.84
2022-08-17T12:20:36.551Z,34.59
2022-08-17T12:23:33.871Z,34.65
2022-08-17T12:26:19.807Z,34.85
2022-08-17T12:28:58.254Z,34.46
2022-08-17T12:31:58.436Z,34.02
2022-08-17T12:34:39.094Z,34.05
2022-08-17T12:37:19.095Z,34.31
2022-08-17T12:40:18.188Z,34.46
2022-08-17T12:42:58.548Z,34.60
2022-08-17T12:45:44.851Z,34.73
2022-08-17T12:48:26.557Z,34.97
2022-08-17T12:51:03.384Z,34.90
2022-08-17T12:53:35.379Z,34.31
2022-08-17T12:56:13.234Z,34.26
2022-08-17T12:58:50.871Z,34.19
2022-08-17T13:01:18.914Z,34.05
2022-08-17T13:03:52.745Z,34.34
2022-08-17T13:06:33.403Z,34.46
2022-08-17T13:09:18.858Z,34.35
2022-08-17T13:11:56.439Z,34.40
2022-08-17T13:14:23.601Z,34.00
2022-08-17T13:17:02.396Z,34.35
2022-08-17T13:19:40.897Z,34.52
2022-08-17T13:22:13.622Z,34.85
2022-08-17T13:24:53.819Z,34.63
2022-08-17T13:27:23.783Z,34.71
2022-08-17T13:29:58.597Z,34.67
2022-08-17T13:32:33.905Z,34.60
2022-08-17T13:35:15.428Z,34.44
2022-08-17T13:38:17.290Z,34.51
2022-08-17T13:40:57.166Z,34.44
2022-08-17T13:43:43.012Z,34.49
2022-08-17T13:46:33.380Z,34.36
2022-08-17T13:49:04.504Z,34.04
2022-08-17T13:51:34.265Z,33.93
2022-08-17T13:54:05.768Z,33.97
2022-08-17T13:56:50.118Z,34.01
2022-08-17T13:59:53.856Z,34.10
2022-08-17T14:02:28.044Z,33.74
2022-08-17T14:05:01.126Z,33.99
2022-08-17T14:07:43.996Z,34.08
2022-08-17T14:10:20.727Z,34.06
2022-08-17T14:12:57.834Z,34.08
2022-08-17T14:15:55.725Z,34.13
2022-08-17T14:18:18.887Z,34.12
2022-08-17T14:21:10.803Z,33.84
2022-08-17T14:23:38.976Z,33.59
2022-08-17T14:26:07.119Z,33.30
2022-08-17T14:28:37.728Z,33.57
2022-08-17T14:31:13.339Z,33.54
2022-08-17T14:33:43.583Z,33.25
2022-08-17T14:36:12.297Z,33.36
2022-08-17T14:38:39.838Z,33.40
2022-08-17T14:41:10.843Z,33.56
2022-08-17T14:43:40.507Z,33.66
2022-08-17T14:46:07.687Z,33.67
2022-08-17T14:48:39.728Z,33.49
2022-08-17T14:51:10.475Z,33.22
2022-08-17T14:53:38.926Z,32.95
2022-08-17T14:56:09.166Z,33.11
2022-08-17T14:58:38.621Z,33.38
2022-08-17T15:01:12.780Z,33.40
2022-08-17T15:03:44.372Z,33.58
2022-08-17T15:06:18.658Z,33.65
2022-08-17T15:08:48.687Z,33.73
2022-08-17T15:11:16.345Z,33.49
2022-08-17T15:13:52.914Z,33.41
2022-08-17T15:16:23.498Z,33.52
2022-08-17T15:18:53.600Z,33.38
2022-08-17T15:21:24.442Z,33.17
2022-08-17T15:23:54.789Z,33.16
2022-08-17T15:26:26.351Z,33.26
2022-08-17T15:28:58.859Z,33.31
2022-08-17T15:31:31.916Z,33.16
2022-08-17T15:34:02.508Z,33.17
2022-08-17T15:36:30.058Z,33.14
2022-08-17T15:38:59.163Z,33.14
2022-08-17T15:41:37.475Z,33.10
2022-08-17T15:44:08.905Z,33.10
2022-08-17T15:46:36.961Z,32.90
2022-08-17T15:49:04.871Z,32.74
2022-08-17T15:51:35.730Z,32.71
2022-08-17T15:54:19.392Z,32.70
2022-08-17T15:56:54.175Z,32.71
2022-08-17T15:59:27.197Z,32.46
2022-08-17T16:03:01.470Z,32.27
2022-08-17T16:04:56.523Z,32.34
2022-08-17T16:07:26.864Z,32.19
2022-08-17T16:09:55.463Z,32.08
2022-08-17T16:12:23.066Z,32.18
2022-08-17T16:14:56.992Z,32.14
2022-08-17T16:17:38.888Z,32.05
2022-08-17T16:20:19.576Z,32.16
2022-08-17T16:22:51.932Z,32.00
2022-08-17T16:25:23.419Z,32.00
2022-08-17T16:28:14.389Z,32.00
2022-08-17T16:30:45.352Z,31.85
2022-08-17T16:33:13.786Z,31.75
2022-08-17T16:35:44.458Z,31.76
2022-08-17T16:38:13.179Z,31.77
2022-08-17T16:40:44.399Z,31.76
2022-08-17T16:43:13.770Z,31.53
2022-08-17T16:45:41.158Z,31.30
2022-08-17T16:48:10.562Z,31.19
2022-08-17T16:50:39.027Z,31.18
2022-08-17T16:53:18.337Z,31.17
2022-08-17T16:56:12.118Z,31.16
2022-08-17T16:58:40.494Z,31.09
2022-08-17T17:01:11.075Z,31.02
2022-08-17T17:03:44.369Z,31.06
2022-08-17T17:06:37.601Z,30.91
2022-08-17T17:09:13.675Z,30.84
2022-08-17T17:11:46.078Z,30.89
2022-08-17T17:14:30.669Z,30.56
2022-08-17T17:17:08.771Z,30.52
2022-08-17T17:20:09.028Z,30.53
2022-08-17T17:23:29.409Z,30.55
2022-08-17T17:26:06.400Z,30.28
2022-08-17T17:28:54.182Z,30.25
2022-08-17T17:31:25.673Z,30.20
2022-08-17T17:34:00.641Z,30.09
2022-08-17T17:36:59.241Z,29.86
2022-08-17T17:39:44.523Z,29.88
2022-08-17T17:42:20.276Z,29.82
2022-08-17T17:45:18.617Z,29.77
2022-08-17T17:47:46.071Z,29.70
2022-08-17T17:50:18.518Z,29.68
2022-08-17T17:53:12.028Z,29.66
2022-08-17T17:56:43.263Z,29.53
2022-08-17T17:59:44.476Z,29.42
2022-08-17T18:02:51.477Z,29.26
2022-08-17T18:06:01.404Z,29.06
2022-08-17T18:09:06.301Z,28.99
2022-08-17T18:12:19.327Z,28.98
2022-08-17T18:15:19.284Z,29.05
2022-08-17T18:18:15.046Z,28.98
2022-08-17T18:20:53.852Z,28.99
2022-08-17T18:23:28.044Z,29.01
2022-08-17T18:26:02.399Z,28.99
2022-08-17T18:28:58.789Z,28.96
2022-08-17T18:31:27.138Z,28.89
2022-08-17T18:34:36.047Z,28.84
2022-08-17T18:37:05.683Z,28.73
2022-08-17T18:39:33.259Z,28.60
2022-08-17T18:42:04.558Z,28.53
2022-08-17T18:44:55.318Z,28.39
2022-08-17T18:47:31.199Z,28.35
2022-08-17T18:50:30.012Z,28.34
2022-08-17T18:53:35.697Z,28.27
2022-08-17T18:56:30.939Z,28.21
2022-08-17T18:59:39.767Z,27.96
2022-08-17T19:02:45.023Z,27.88
2022-08-17T19:05:39.200Z,27.75
2022-08-17T19:08:32.428Z,27.60
2022-08-17T19:11:28.584Z,27.53
2022-08-17T19:14:30.000Z,27.43
2022-08-17T19:17:22.743Z,27.38
2022-08-17T19:20:24.037Z,27.26
2022-08-17T19:23:39.524Z,27.24
2022-08-17T19:26:55.276Z,27.27
2022-08-17T19:29:28.873Z,27.25
2022-08-17T19:31:59.065Z,27.24
2022-08-17T19:34:34.603Z,27.08
2022-08-17T19:37:26.297Z,27.01
2022-08-17T19:40:52.286Z,26.99
2022-08-17T19:44:02.781Z,27.01
2022-08-17T19:47:01.897Z,26.91
2022-08-17T19:49:41.832Z,26.86
2022-08-17T19:52:26.805Z,26.86
2022-08-17T19:55:26.971Z,26.92
2022-08-17T19:58:17.737Z,26.82
2022-08-17T20:00:52.557Z,26.64
2022-08-17T20:03:56.539Z,26.74
2022-08-17T20:06:28.547Z,26.75
2022-08-17T20:09:24.645Z,26.77
2022-08-17T20:12:04.139Z,26.75
2022-08-17T20:14:37.978Z,26.70
2022-08-17T20:17:09.259Z,26.66
2022-08-17T20:20:04.307Z,26.62
2022-08-17T20:22:51.845Z,26.65
2022-08-17T20:25:50.067Z,26.61
2022-08-17T20:28:30.946Z,26.59
2022-08-17T20:30:59.573Z,26.60
2022-08-17T20:33:38.456Z,26.61
2022-08-17T20:36:26.346Z,26.57
2022-08-17T20:38:59.264Z,26.58
2022-08-17T20:41:30.369Z,26.53
2022-08-17T20:43:57.979Z,26.51
2022-08-17T20:46:59.734Z,26.53
2022-08-17T20:49:52.489Z,26.56
2022-08-17T20:52:46.221Z,26.58
2022-08-17T20:55:52.621Z,26.56
2022-08-17T20:58:34.104Z,26.57
2022-08-17T21:01:22.491Z,26.54
2022-08-17T21:03:51.883Z,26.54
2022-08-17T21:06:23.085Z,26.56
2022-08-17T21:08:55.035Z,26.57
2022-08-17T21:12:02.934Z,26.64
2022-08-17T21:14:52.737Z,26.57
2022-08-17T21:17:39.512Z,26.52
2022-08-17T21:20:26.622Z,26.56
2022-08-17T21:23:40.701Z,26.69
2022-08-17T21:26:50.762Z,26.60
2022-08-17T21:29:32.339Z,26.54
2022-08-17T21:32:05.389Z,26.53
2022-08-17T21:35:11.194Z,26.47
2022-08-17T21:37:51.394Z,26.25
2022-08-17T21:40:26.852Z,26.02
2022-08-17T21:43:00.276Z,26.06
2022-08-17T21:45:43.104Z,26.24
2022-08-17T21:48:26.950Z,26.26
2022-08-17T21:51:31.003Z,26.28
2022-08-17T21:54:05.542Z,26.16
2022-08-17T21:56:41.020Z,26.16
2022-08-17T21:59:28.022Z,26.17
2022-08-17T22:02:04.617Z,26.18
2022-08-17T22:04:33.520Z,26.27
2022-08-17T22:07:03.107Z,26.27
2022-08-17T22:09:34.711Z,26.28
2022-08-17T22:12:22.096Z,26.27
2022-08-17T22:15:08.450Z,26.30
2022-08-17T22:17:49.227Z,26.30
2022-08-17T22:20:21.239Z,26.24
2022-08-17T22:23:11.587Z,26.17
2022-08-17T22:25:56.776Z,26.16
2022-08-17T22:28:48.702Z,26.08
2022-08-17T22:31:23.018Z,26.03
2022-08-17T22:34:13.261Z,26.10
2022-08-17T22:36:44.615Z,26.06
2022-08-17T22:39:14.786Z,26.08
2022-08-17T22:41:50.570Z,26.02
2022-08-17T22:44:29.871Z,26.07
2022-08-17T22:47:44.080Z,26.08
2022-08-17T22:50:30.581Z,26.03
2022-08-17T22:53:33.159Z,25.98
2022-08-17T22:56:30.042Z,25.96
2022-08-17T22:59:20.674Z,25.95
2022-08-17T23:02:28.991Z,25.96
2022-08-17T23:05:24.131Z,25.90
2022-08-17T23:07:53.507Z,25.90
2022-08-17T23:10:23.900Z,25.84
2022-08-17T23:12:51.033Z,25.80
2022-08-17T23:15:21.840Z,25.78
2022-08-17T23:17:50.486Z,25.77
2022-08-17T23:20:19.502Z,25.71
2022-08-17T23:22:52.040Z,25.68
2022-08-17T23:25:34.125Z,25.57
2022-08-17T23:28:04.470Z,25.46
2022-08-17T23:30:39.174Z,25.35
2022-08-17T23:33:10.663Z,25.29
2022-08-17T23:35:41.131Z,25.27
2022-08-17T23:38:14.471Z,25.14
2022-08-17T23:40:44.282Z,25.18
2022-08-17T23:43:25.121Z,25.18
2022-08-17T23:45:59.872Z,25.11
2022-08-17T23:48:35.748Z,25.04
2022-08-17T23:51:14.791Z,25.05
2022-08-17T23:53:49.796Z,25.08
2022-08-17T23:56:25.953Z,25.06
2022-08-17T23:58:56.329Z,25.03
